Orange8 — JL6278 — position and weather

sailwx.info

Track history (hours):
 
Tides and Currents Weather Stations Pressure Air Temp Water Temp Dewpoint Dewpoint Depression Visibility Wind Speed Wind Dir Waves Ship Positions

Orange8

Last reported at 2016-Feb-07 00:32 UTC. Time now 2016-Feb-07 01:27 UTC.
Position N 34°37' E 135°26'.

Length 164 m; draft 5 m.

Type: Passenger vessel. MMSI: 431501603.

Date/timePositionNaut miles runAvg speedWind from/ knotsBaromVisibWave heightAir tempDewpointWater temp
2016-Feb-07 00:32N 34°37' E 135°26'0 0.0
2016-Feb-06 23:20N 34°37' E 135°26'0 0.0
2016-Feb-06 22:08N 34°37' E 135°26'0 0.0
2016-Feb-06 21:26N 34°37' E 135°26'5 5.8
2016-Feb-06 20:33N 34°36' E 135°20'1817.5
2016-Feb-06 19:33N 34°37' E 134°58'9 0.7
2016-Feb-06 06:25N 34°34' E 134°48'1517.8
2016-Feb-06 05:33N 34°36' E 135°07'1615.7
2016-Feb-06 04:33N 34°37' E 135°26'0 0.0
2016-Feb-06 03:29N 34°37' E 135°26'0 0.0
2016-Feb-06 02:17N 34°37' E 135°26'0 0.0
2016-Feb-06 01:29N 34°37' E 135°26'0 0.0
2016-Feb-06 00:11N 34°37' E 135°26'0 0.0
2016-Feb-05 21:23N 34°37' E 135°26'5 5.7
2016-Feb-05 20:33N 34°36' E 135°20'1817.8
2016-Feb-05 19:33N 34°37' E 134°59'7 0.5
2016-Feb-05 06:13N 34°35' E 134°51'1218.0
2016-Feb-05 05:33N 34°36' E 135°06'1616.4
2016-Feb-05 04:33N 34°37' E 135°26'0 0.1
2016-Feb-05 03:30N 34°37' E 135°26'0 0.0
2016-Feb-05 02:30N 34°37' E 135°26'0 0.0
2016-Feb-05 01:30N 34°37' E 135°26'0 0.0
2016-Feb-05 00:30N 34°37' E 135°26'0 0.0
2016-Feb-04 22:30N 34°37' E 135°26'0 0.0
2016-Feb-04 21:12N 34°37' E 135°26'6 9.8
2016-Feb-04 20:33N 34°36' E 135°18'1717.2
2016-Feb-04 19:33N 34°36' E 134°58'7 0.5
2016-Feb-04 05:33N 34°36' E 135°07'1615.9
2016-Feb-04 04:33N 34°37' E 135°26'0 0.0
2016-Feb-04 03:23N 34°37' E 135°26'0 0.0
2016-Feb-04 02:29N 34°37' E 135°26'0 0.0
2016-Feb-04 01:29N 34°37' E 135°26'0 0.0
2016-Feb-04 00:17N 34°37' E 135°26'0 0.0
2016-Feb-03 23:29N 34°37' E 135°26'0 0.0
2016-Feb-03 21:12N 34°37' E 135°26'610.2
2016-Feb-03 20:33N 34°35' E 135°18'1818.0
2016-Feb-03 19:33N 34°36' E 134°56'4 0.3
2016-Feb-03 06:12N 34°35' E 134°51'1219.5
2016-Feb-03 05:33N 34°36' E 135°06'1616.3
2016-Feb-03 04:33N 34°37' E 135°26'0 0.0
2016-Feb-03 03:05N 34°37' E 135°26'0 0.0
2016-Feb-03 02:29N 34°37' E 135°26'0 0.0
2016-Feb-03 01:17N 34°37' E 135°26'0 0.0
2016-Feb-03 00:23N 34°37' E 135°26'0 0.0
2016-Feb-02 23:23N 34°37' E 135°26'0 0.0
2016-Feb-02 22:23N 34°37' E 135°26'0 0.0
2016-Feb-02 21:29N 34°37' E 135°26'7 7.7
2016-Feb-02 20:33N 34°36' E 135°17'1817.9
2016-Feb-02 19:33N 34°36' E 134°56'8 0.5
2016-Feb-02 05:34N 34°35' E 135°05'1717.3
2016-Feb-02 04:33N 34°37' E 135°26'0 0.0
2016-Feb-02 02:25N 34°37' E 135°26'0 0.0
2016-Feb-02 01:31N 34°37' E 135°26'0 0.0
2016-Feb-02 00:31N 34°37' E 135°26'0 0.0
2016-Feb-01 23:31N 34°37' E 135°26'0 0.0
2016-Feb-01 22:31N 34°37' E 135°26'0 0.0
2016-Feb-01 21:13N 34°37' E 135°26'5 8.4
2016-Feb-01 20:33N 34°36' E 135°19'1817.6
2016-Feb-01 19:33N 34°37' E 134°58'11 0.8
2016-Feb-01 06:23N 34°33' E 134°45'1720.7
2016-Feb-01 05:33N 34°36' E 135°06'1616.3
2016-Feb-01 04:33N 34°37' E 135°26'0 0.1
2016-Feb-01 03:22N 34°37' E 135°26'0 0.0
2016-Feb-01 02:28N 34°37' E 135°26'0 0.0
2016-Feb-01 01:28N 34°37' E 135°26'0 0.0
2016-Feb-01 00:28N 34°37' E 135°26'0 0.0
2016-Jan-31 23:28N 34°37' E 135°26'0 0.0
2016-Jan-31 22:16N 34°37' E 135°26'0 0.0
2016-Jan-31 21:16N 34°37' E 135°26'6 7.9
2016-Jan-31 20:33N 34°36' E 135°19'1818.2
2016-Jan-31 19:33N 34°36' E 134°57'1 0.0
2016-Jan-30 14:33N 34°37' E 134°57'1818.3
2016-Jan-30 13:33N 34°37' E 135°19'6 5.0
2016-Jan-30 12:22N 34°37' E 135°26'0 0.0
2016-Jan-30 10:28N 34°37' E 135°26'0 0.0
2016-Jan-30 09:28N 34°37' E 135°26'0 0.0
2016-Jan-30 08:22N 34°37' E 135°26'0 0.0
2016-Jan-30 07:28N 34°37' E 135°26'0 0.0
2016-Jan-30 06:16N 34°37' E 135°26'0 0.0
2016-Jan-30 05:28N 34°37' E 135°26'0 0.0
2016-Jan-30 03:10N 34°37' E 135°26'0 0.0
2016-Jan-30 00:28N 34°37' E 135°26'0 0.0
2016-Jan-29 22:22N 34°37' E 135°26'0 0.0
2016-Jan-29 21:28N 34°37' E 135°26'6 6.5
2016-Jan-29 20:34N 34°36' E 135°19'1918.5
2016-Jan-29 19:33N 34°36' E 134°56'1 0.0
2016-Jan-28 14:34N 34°36' E 134°55'2019.5
2016-Jan-28 13:33N 34°36' E 135°19'6 1.9
2016-Jan-28 10:31N 34°37' E 135°26'0 0.0
2016-Jan-28 09:25N 34°37' E 135°26'0 0.0
2016-Jan-28 08:31N 34°37' E 135°26'0 0.0
2016-Jan-28 07:25N 34°37' E 135°26'0 0.0
2016-Jan-28 06:31N 34°37' E 135°26'0 0.0
2016-Jan-28 05:31N 34°37' E 135°26'0 0.0
2016-Jan-28 04:31N 34°37' E 135°26'0 0.0
2016-Jan-28 03:31N 34°37' E 135°26'0 0.0
2016-Jan-28 02:31N 34°37' E 135°26'0 0.0
2016-Jan-28 01:31N 34°37' E 135°26'  
Track history (hours):
 
Tides and Currents Weather Stations Pressure Air Temp Water Temp Dewpoint Dewpoint Depression Visibility Wind Speed Wind Dir Waves Ship Positions

Orange8

Last reported at 2016-Feb-07 00:32 UTC. Time now 2016-Feb-07 01:27 UTC.
Position N 34°37' E 135°26'.

Length 164 m; draft 5 m.

Type: Passenger vessel. MMSI: 431501603.

Date/timePositionNaut miles runAvg speedWind from/ knotsBaromVisibWave heightAir tempDewpointWater temp
2016-Feb-07 00:32N 34°37' E 135°26'0 0.0
2016-Feb-06 23:20N 34°37' E 135°26'0 0.0
2016-Feb-06 22:08N 34°37' E 135°26'0 0.0
2016-Feb-06 21:26N 34°37' E 135°26'5 5.8
2016-Feb-06 20:33N 34°36' E 135°20'1817.5
2016-Feb-06 19:33N 34°37' E 134°58'9 0.7
2016-Feb-06 06:25N 34°34' E 134°48'1517.8
2016-Feb-06 05:33N 34°36' E 135°07'1615.7
2016-Feb-06 04:33N 34°37' E 135°26'0 0.0
2016-Feb-06 03:29N 34°37' E 135°26'0 0.0
2016-Feb-06 02:17N 34°37' E 135°26'0 0.0
2016-Feb-06 01:29N 34°37' E 135°26'0 0.0
2016-Feb-06 00:11N 34°37' E 135°26'0 0.0
2016-Feb-05 21:23N 34°37' E 135°26'5 5.7
2016-Feb-05 20:33N 34°36' E 135°20'1817.8
2016-Feb-05 19:33N 34°37' E 134°59'7 0.5
2016-Feb-05 06:13N 34°35' E 134°51'1218.0
2016-Feb-05 05:33N 34°36' E 135°06'1616.4
2016-Feb-05 04:33N 34°37' E 135°26'0 0.1
2016-Feb-05 03:30N 34°37' E 135°26'0 0.0
2016-Feb-05 02:30N 34°37' E 135°26'0 0.0
2016-Feb-05 01:30N 34°37' E 135°26'0 0.0
2016-Feb-05 00:30N 34°37' E 135°26'0 0.0
2016-Feb-04 22:30N 34°37' E 135°26'0 0.0
2016-Feb-04 21:12N 34°37' E 135°26'6 9.8
2016-Feb-04 20:33N 34°36' E 135°18'1717.2
2016-Feb-04 19:33N 34°36' E 134°58'7 0.5
2016-Feb-04 05:33N 34°36' E 135°07'1615.9
2016-Feb-04 04:33N 34°37' E 135°26'0 0.0
2016-Feb-04 03:23N 34°37' E 135°26'0 0.0
2016-Feb-04 02:29N 34°37' E 135°26'0 0.0
2016-Feb-04 01:29N 34°37' E 135°26'0 0.0
2016-Feb-04 00:17N 34°37' E 135°26'0 0.0
2016-Feb-03 23:29N 34°37' E 135°26'0 0.0
2016-Feb-03 21:12N 34°37' E 135°26'610.2
2016-Feb-03 20:33N 34°35' E 135°18'1818.0
2016-Feb-03 19:33N 34°36' E 134°56'4 0.3
2016-Feb-03 06:12N 34°35' E 134°51'1219.5
2016-Feb-03 05:33N 34°36' E 135°06'1616.3
2016-Feb-03 04:33N 34°37' E 135°26'0 0.0
2016-Feb-03 03:05N 34°37' E 135°26'0 0.0
2016-Feb-03 02:29N 34°37' E 135°26'0 0.0
2016-Feb-03 01:17N 34°37' E 135°26'0 0.0
2016-Feb-03 00:23N 34°37' E 135°26'0 0.0
2016-Feb-02 23:23N 34°37' E 135°26'0 0.0
2016-Feb-02 22:23N 34°37' E 135°26'0 0.0
2016-Feb-02 21:29N 34°37' E 135°26'7 7.7
2016-Feb-02 20:33N 34°36' E 135°17'1817.9
2016-Feb-02 19:33N 34°36' E 134°56'8 0.5
2016-Feb-02 05:34N 34°35' E 135°05'1717.3
2016-Feb-02 04:33N 34°37' E 135°26'0 0.0
2016-Feb-02 02:25N 34°37' E 135°26'0 0.0
2016-Feb-02 01:31N 34°37' E 135°26'0 0.0
2016-Feb-02 00:31N 34°37' E 135°26'0 0.0
2016-Feb-01 23:31N 34°37' E 135°26'0 0.0
2016-Feb-01 22:31N 34°37' E 135°26'0 0.0
2016-Feb-01 21:13N 34°37' E 135°26'5 8.4
2016-Feb-01 20:33N 34°36' E 135°19'1817.6
2016-Feb-01 19:33N 34°37' E 134°58'11 0.8
2016-Feb-01 06:23N 34°33' E 134°45'1720.7
2016-Feb-01 05:33N 34°36' E 135°06'1616.3
2016-Feb-01 04:33N 34°37' E 135°26'0 0.1
2016-Feb-01 03:22N 34°37' E 135°26'0 0.0
2016-Feb-01 02:28N 34°37' E 135°26'0 0.0
2016-Feb-01 01:28N 34°37' E 135°26'0 0.0
2016-Feb-01 00:28N 34°37' E 135°26'0 0.0
2016-Jan-31 23:28N 34°37' E 135°26'0 0.0
2016-Jan-31 22:16N 34°37' E 135°26'0 0.0
2016-Jan-31 21:16N 34°37' E 135°26'6 7.9
2016-Jan-31 20:33N 34°36' E 135°19'1818.2
2016-Jan-31 19:33N 34°36' E 134°57'1 0.0
2016-Jan-30 14:33N 34°37' E 134°57'1818.3
2016-Jan-30 13:33N 34°37' E 135°19'6 5.0
2016-Jan-30 12:22N 34°37' E 135°26'0 0.0
2016-Jan-30 10:28N 34°37' E 135°26'0 0.0
2016-Jan-30 09:28N 34°37' E 135°26'0 0.0
2016-Jan-30 08:22N 34°37' E 135°26'0 0.0
2016-Jan-30 07:28N 34°37' E 135°26'0 0.0
2016-Jan-30 06:16N 34°37' E 135°26'0 0.0
2016-Jan-30 05:28N 34°37' E 135°26'0 0.0
2016-Jan-30 03:10N 34°37' E 135°26'0 0.0
2016-Jan-30 00:28N 34°37' E 135°26'0 0.0
2016-Jan-29 22:22N 34°37' E 135°26'0 0.0
2016-Jan-29 21:28N 34°37' E 135°26'6 6.5
2016-Jan-29 20:34N 34°36' E 135°19'1918.5
2016-Jan-29 19:33N 34°36' E 134°56'1 0.0
2016-Jan-28 14:34N 34°36' E 134°55'2019.5
2016-Jan-28 13:33N 34°36' E 135°19'6 1.9
2016-Jan-28 10:31N 34°37' E 135°26'0 0.0
2016-Jan-28 09:25N 34°37' E 135°26'0 0.0
2016-Jan-28 08:31N 34°37' E 135°26'0 0.0
2016-Jan-28 07:25N 34°37' E 135°26'0 0.0
2016-Jan-28 06:31N 34°37' E 135°26'0 0.0
2016-Jan-28 05:31N 34°37' E 135°26'0 0.0
2016-Jan-28 04:31N 34°37' E 135°26'0 0.0
2016-Jan-28 03:31N 34°37' E 135°26'0 0.0
2016-Jan-28 02:31N 34°37' E 135°26'0 0.0
2016-Jan-28 01:31N 34°37' E 135°26'  

Dump ship's entire track history